sensor_id;sensor_type;location;lat;lon;timestamp;P1;durP1;ratioP1;P2;durP2;ratioP2
5608;SDS011;2826;51.354;9.588;2023-03-13T00:01:25;20.87;;;3.77;;
5608;SDS011;2826;51.354;9.588;2023-03-13T00:03:54;20.00;;;4.53;;
5608;SDS011;2826;51.354;9.588;2023-03-13T00:06:22;18.17;;;3.70;;
5608;SDS011;2826;51.354;9.588;2023-03-13T00:08:51;26.20;;;4.47;;
5608;SDS011;2826;51.354;9.588;2023-03-13T00:11:19;18.67;;;4.47;;
5608;SDS011;2826;51.354;9.588;2023-03-13T00:13:45;34.23;;;3.97;;
5608;SDS011;2826;51.354;9.588;2023-03-13T00:16:13;15.93;;;3.17;;
5608;SDS011;2826;51.354;9.588;2023-03-13T00:18:44;17.53;;;3.37;;
5608;SDS011;2826;51.354;9.588;2023-03-13T00:21:11;41.37;;;4.00;;
5608;SDS011;2826;51.354;9.588;2023-03-13T00:23:39;17.53;;;3.97;;
5608;SDS011;2826;51.354;9.588;2023-03-13T00:26:06;20.73;;;3.30;;
5608;SDS011;2826;51.354;9.588;2023-03-13T00:28:35;13.50;;;3.10;;
5608;SDS011;2826;51.354;9.588;2023-03-13T00:31:04;25.93;;;4.50;;
5608;SDS011;2826;51.354;9.588;2023-03-13T00:33:32;20.77;;;4.47;;
5608;SDS011;2826;51.354;9.588;2023-03-13T00:35:59;25.80;;;4.87;;
5608;SDS011;2826;51.354;9.588;2023-03-13T00:38:26;23.03;;;4.03;;
5608;SDS011;2826;51.354;9.588;2023-03-13T00:40:58;24.13;;;3.70;;
5608;SDS011;2826;51.354;9.588;2023-03-13T00:43:26;13.17;;;3.47;;
5608;SDS011;2826;51.354;9.588;2023-03-13T00:45:52;25.00;;;3.87;;
5608;SDS011;2826;51.354;9.588;2023-03-13T00:48:19;15.37;;;2.93;;
5608;SDS011;2826;51.354;9.588;2023-03-13T00:50:46;22.73;;;3.83;;
5608;SDS011;2826;51.354;9.588;2023-03-13T00:53:13;17.70;;;3.73;;
5608;SDS011;2826;51.354;9.588;2023-03-13T00:55:49;11.40;;;3.30;;
5608;SDS011;2826;51.354;9.588;2023-03-13T00:58:18;19.70;;;4.40;;
5608;SDS011;2826;51.354;9.588;2023-03-13T01:00:44;12.60;;;3.20;;
5608;SDS011;2826;51.354;9.588;2023-03-13T01:03:11;25.13;;;3.40;;
5608;SDS011;2826;51.354;9.588;2023-03-13T01:05:37;19.90;;;3.83;;
5608;SDS011;2826;51.354;9.588;2023-03-13T01:08:04;9.20;;;3.37;;
5608;SDS011;2826;51.354;9.588;2023-03-13T01:10:30;15.37;;;3.30;;
5608;SDS011;2826;51.354;9.588;2023-03-13T01:12:57;23.63;;;3.50;;
5608;SDS011;2826;51.354;9.588;2023-03-13T01:15:25;21.77;;;4.10;;
5608;SDS011;2826;51.354;9.588;2023-03-13T01:17:51;11.87;;;2.80;;
5608;SDS011;2826;51.354;9.588;2023-03-13T01:20:18;21.83;;;3.37;;
5608;SDS011;2826;51.354;9.588;2023-03-13T01:22:45;18.40;;;3.40;;
5608;SDS011;2826;51.354;9.588;2023-03-13T01:25:11;5.27;;;2.30;;
5608;SDS011;2826;51.354;9.588;2023-03-13T01:27:39;15.93;;;3.63;;
5608;SDS011;2826;51.354;9.588;2023-03-13T01:30:06;26.63;;;3.50;;
5608;SDS011;2826;51.354;9.588;2023-03-13T01:32:35;20.17;;;4.50;;
5608;SDS011;2826;51.354;9.588;2023-03-13T01:35:02;19.57;;;3.67;;
5608;SDS011;2826;51.354;9.588;2023-03-13T01:37:28;20.37;;;3.00;;
5608;SDS011;2826;51.354;9.588;2023-03-13T01:39:55;17.20;;;4.27;;
5608;SDS011;2826;51.354;9.588;2023-03-13T01:42:22;11.53;;;2.90;;
5608;SDS011;2826;51.354;9.588;2023-03-13T01:44:48;18.37;;;3.60;;
5608;SDS011;2826;51.354;9.588;2023-03-13T01:47:16;27.87;;;3.10;;
5608;SDS011;2826;51.354;9.588;2023-03-13T01:49:57;22.43;;;4.00;;
5608;SDS011;2826;51.354;9.588;2023-03-13T01:52:47;18.73;;;3.40;;
5608;SDS011;2826;51.354;9.588;2023-03-13T01:55:19;26.67;;;4.50;;
5608;SDS011;2826;51.354;9.588;2023-03-13T01:58:04;18.17;;;3.43;;
5608;SDS011;2826;51.354;9.588;2023-03-13T02:00:32;29.47;;;4.23;;
5608;SDS011;2826;51.354;9.588;2023-03-13T02:03:01;14.67;;;3.20;;
5608;SDS011;2826;51.354;9.588;2023-03-13T02:05:34;18.97;;;3.37;;
5608;SDS011;2826;51.354;9.588;2023-03-13T02:08:02;16.10;;;3.40;;
5608;SDS011;2826;51.354;9.588;2023-03-13T02:10:35;9.57;;;2.20;;
5608;SDS011;2826;51.354;9.588;2023-03-13T02:13:07;13.73;;;2.80;;
5608;SDS011;2826;51.354;9.588;2023-03-13T02:15:38;16.10;;;2.97;;
5608;SDS011;2826;51.354;9.588;2023-03-13T02:18:07;12.77;;;2.83;;
5608;SDS011;2826;51.354;9.588;2023-03-13T02:20:35;23.17;;;4.10;;
5608;SDS011;2826;51.354;9.588;2023-03-13T02:23:06;19.57;;;4.00;;
5608;SDS011;2826;51.354;9.588;2023-03-13T02:25:42;18.87;;;3.50;;
5608;SDS011;2826;51.354;9.588;2023-03-13T02:28:14;17.90;;;3.37;;
5608;SDS011;2826;51.354;9.588;2023-03-13T02:30:45;17.57;;;3.77;;
5608;SDS011;2826;51.354;9.588;2023-03-13T02:33:13;18.17;;;2.97;;
5608;SDS011;2826;51.354;9.588;2023-03-13T02:35:41;16.47;;;3.40;;
5608;SDS011;2826;51.354;9.588;2023-03-13T02:38:12;16.23;;;3.57;;
5608;SDS011;2826;51.354;9.588;2023-03-13T02:40:45;14.57;;;3.03;;
5608;SDS011;2826;51.354;9.588;2023-03-13T02:43:15;19.53;;;4.30;;
5608;SDS011;2826;51.354;9.588;2023-03-13T02:48:29;9.90;;;2.70;;
5608;SDS011;2826;51.354;9.588;2023-03-13T02:50:57;21.93;;;3.80;;
5608;SDS011;2826;51.354;9.588;2023-03-13T02:53:24;13.53;;;2.70;;
5608;SDS011;2826;51.354;9.588;2023-03-13T02:55:52;15.67;;;3.47;;
5608;SDS011;2826;51.354;9.588;2023-03-13T02:58:19;18.00;;;3.83;;
5608;SDS011;2826;51.354;9.588;2023-03-13T03:00:45;13.30;;;3.40;;
5608;SDS011;2826;51.354;9.588;2023-03-13T03:03:12;11.80;;;3.53;;
5608;SDS011;2826;51.354;9.588;2023-03-13T03:05:39;23.80;;;3.80;;
5608;SDS011;2826;51.354;9.588;2023-03-13T03:08:05;12.70;;;2.93;;
5608;SDS011;2826;51.354;9.588;2023-03-13T03:10:34;29.33;;;3.80;;
5608;SDS011;2826;51.354;9.588;2023-03-13T03:13:03;9.23;;;2.70;;
5608;SDS011;2826;51.354;9.588;2023-03-13T03:15:29;17.27;;;3.30;;
5608;SDS011;2826;51.354;9.588;2023-03-13T03:17:56;18.03;;;3.53;;
5608;SDS011;2826;51.354;9.588;2023-03-13T03:20:23;18.60;;;3.20;;
5608;SDS011;2826;51.354;9.588;2023-03-13T03:22:50;18.07;;;4.30;;
5608;SDS011;2826;51.354;9.588;2023-03-13T03:25:16;21.03;;;4.23;;
5608;SDS011;2826;51.354;9.588;2023-03-13T03:27:44;22.73;;;3.20;;
5608;SDS011;2826;51.354;9.588;2023-03-13T03:30:13;20.63;;;3.03;;
5608;SDS011;2826;51.354;9.588;2023-03-13T03:32:40;20.47;;;3.10;;
5608;SDS011;2826;51.354;9.588;2023-03-13T03:35:07;19.87;;;4.10;;
5608;SDS011;2826;51.354;9.588;2023-03-13T03:37:34;15.70;;;3.10;;
5608;SDS011;2826;51.354;9.588;2023-03-13T03:40:02;20.13;;;3.70;;
5608;SDS011;2826;51.354;9.588;2023-03-13T03:42:31;14.40;;;3.63;;
5608;SDS011;2826;51.354;9.588;2023-03-13T03:44:58;14.30;;;3.40;;
5608;SDS011;2826;51.354;9.588;2023-03-13T03:47:26;22.50;;;3.73;;
5608;SDS011;2826;51.354;9.588;2023-03-13T03:49:53;18.73;;;3.63;;
5608;SDS011;2826;51.354;9.588;2023-03-13T03:52:19;17.37;;;3.80;;
5608;SDS011;2826;51.354;9.588;2023-03-13T03:54:46;12.70;;;2.93;;
5608;SDS011;2826;51.354;9.588;2023-03-13T03:57:14;9.03;;;2.60;;
5608;SDS011;2826;51.354;9.588;2023-03-13T03:59:43;16.70;;;3.77;;
5608;SDS011;2826;51.354;9.588;2023-03-13T04:02:10;20.80;;;4.27;;
5608;SDS011;2826;51.354;9.588;2023-03-13T04:04:40;19.23;;;3.37;;
5608;SDS011;2826;51.354;9.588;2023-03-13T04:07:18;27.47;;;3.93;;
5608;SDS011;2826;51.354;9.588;2023-03-13T04:09:45;18.70;;;3.50;;
5608;SDS011;2826;51.354;9.588;2023-03-13T04:12:20;23.20;;;3.40;;
5608;SDS011;2826;51.354;9.588;2023-03-13T04:14:49;8.10;;;2.53;;
5608;SDS011;2826;51.354;9.588;2023-03-13T04:17:15;17.57;;;3.90;;
5608;SDS011;2826;51.354;9.588;2023-03-13T04:19:45;10.87;;;3.30;;
5608;SDS011;2826;51.354;9.588;2023-03-13T04:22:12;24.70;;;3.50;;
5608;SDS011;2826;51.354;9.588;2023-03-13T04:24:44;17.60;;;3.73;;
5608;SDS011;2826;51.354;9.588;2023-03-13T04:27:11;15.13;;;3.10;;
5608;SDS011;2826;51.354;9.588;2023-03-13T04:29:39;16.50;;;3.70;;
5608;SDS011;2826;51.354;9.588;2023-03-13T04:32:19;10.93;;;3.17;;
5608;SDS011;2826;51.354;9.588;2023-03-13T04:35:06;20.00;;;3.80;;
5608;SDS011;2826;51.354;9.588;2023-03-13T04:37:45;12.37;;;3.40;;
5608;SDS011;2826;51.354;9.588;2023-03-13T04:40:30;18.67;;;3.70;;
5608;SDS011;2826;51.354;9.588;2023-03-13T04:43:15;3.33;;;1.83;;
5608;SDS011;2826;51.354;9.588;2023-03-13T04:46:20;14.13;;;3.13;;
5608;SDS011;2826;51.354;9.588;2023-03-13T04:49:05;13.40;;;2.90;;
5608;SDS011;2826;51.354;9.588;2023-03-13T04:51:59;5.77;;;2.50;;
5608;SDS011;2826;51.354;9.588;2023-03-13T04:54:51;12.93;;;3.47;;
5608;SDS011;2826;51.354;9.588;2023-03-13T04:57:32;12.83;;;3.53;;
5608;SDS011;2826;51.354;9.588;2023-03-13T05:00:11;12.93;;;3.60;;
5608;SDS011;2826;51.354;9.588;2023-03-13T05:02:48;9.37;;;2.87;;
5608;SDS011;2826;51.354;9.588;2023-03-13T05:05:25;15.20;;;3.60;;
5608;SDS011;2826;51.354;9.588;2023-03-13T05:08:17;13.77;;;3.47;;
5608;SDS011;2826;51.354;9.588;2023-03-13T05:11:06;7.17;;;2.73;;
5608;SDS011;2826;51.354;9.588;2023-03-13T05:13:52;16.83;;;5.27;;
5608;SDS011;2826;51.354;9.588;2023-03-13T05:16:34;15.07;;;4.80;;
5608;SDS011;2826;51.354;9.588;2023-03-13T05:19:20;8.93;;;2.77;;
5608;SDS011;2826;51.354;9.588;2023-03-13T05:22:15;9.93;;;3.20;;
5608;SDS011;2826;51.354;9.588;2023-03-13T05:25:02;11.97;;;3.30;;
5608;SDS011;2826;51.354;9.588;2023-03-13T05:27:52;16.53;;;5.13;;
5608;SDS011;2826;51.354;9.588;2023-03-13T05:30:35;18.77;;;4.00;;
5608;SDS011;2826;51.354;9.588;2023-03-13T05:33:21;17.33;;;3.73;;
5608;SDS011;2826;51.354;9.588;2023-03-13T05:36:06;8.83;;;4.70;;
5608;SDS011;2826;51.354;9.588;2023-03-13T05:38:45;8.70;;;3.47;;
5608;SDS011;2826;51.354;9.588;2023-03-13T05:41:36;9.90;;;3.60;;
5608;SDS011;2826;51.354;9.588;2023-03-13T05:44:18;14.97;;;3.60;;
5608;SDS011;2826;51.354;9.588;2023-03-13T05:46:56;13.37;;;3.07;;
5608;SDS011;2826;51.354;9.588;2023-03-13T05:49:41;11.30;;;3.20;;
5608;SDS011;2826;51.354;9.588;2023-03-13T05:52:28;9.27;;;2.80;;
5608;SDS011;2826;51.354;9.588;2023-03-13T05:55:27;11.67;;;4.20;;
5608;SDS011;2826;51.354;9.588;2023-03-13T05:58:14;14.30;;;4.50;;
5608;SDS011;2826;51.354;9.588;2023-03-13T06:00:52;9.17;;;3.10;;
5608;SDS011;2826;51.354;9.588;2023-03-13T06:03:47;8.93;;;3.70;;
5608;SDS011;2826;51.354;9.588;2023-03-13T06:06:16;16.17;;;4.20;;
5608;SDS011;2826;51.354;9.588;2023-03-13T06:08:46;9.47;;;3.60;;
5608;SDS011;2826;51.354;9.588;2023-03-13T06:11:13;14.83;;;4.37;;
5608;SDS011;2826;51.354;9.588;2023-03-13T06:13:41;10.00;;;3.60;;
5608;SDS011;2826;51.354;9.588;2023-03-13T06:16:17;8.17;;;4.03;;
5608;SDS011;2826;51.354;9.588;2023-03-13T06:18:46;16.60;;;4.40;;
5608;SDS011;2826;51.354;9.588;2023-03-13T06:21:13;10.30;;;4.30;;
5608;SDS011;2826;51.354;9.588;2023-03-13T06:23:40;8.37;;;4.40;;
5608;SDS011;2826;51.354;9.588;2023-03-13T06:26:07;15.33;;;4.57;;
5608;SDS011;2826;51.354;9.588;2023-03-13T06:28:33;16.07;;;4.70;;
5608;SDS011;2826;51.354;9.588;2023-03-13T06:31:02;12.60;;;4.77;;
5608;SDS011;2826;51.354;9.588;2023-03-13T06:33:29;9.83;;;4.30;;
5608;SDS011;2826;51.354;9.588;2023-03-13T06:35:56;12.03;;;4.27;;
5608;SDS011;2826;51.354;9.588;2023-03-13T06:38:25;12.07;;;4.37;;
5608;SDS011;2826;51.354;9.588;2023-03-13T06:40:52;13.43;;;4.07;;
5608;SDS011;2826;51.354;9.588;2023-03-13T06:43:19;12.50;;;4.33;;
5608;SDS011;2826;51.354;9.588;2023-03-13T06:45:46;10.90;;;4.00;;
5608;SDS011;2826;51.354;9.588;2023-03-13T06:48:14;8.00;;;4.30;;
5608;SDS011;2826;51.354;9.588;2023-03-13T06:50:41;10.77;;;4.17;;
5608;SDS011;2826;51.354;9.588;2023-03-13T06:53:09;10.87;;;4.20;;
5608;SDS011;2826;51.354;9.588;2023-03-13T06:55:40;11.63;;;4.63;;
5608;SDS011;2826;51.354;9.588;2023-03-13T06:58:07;15.03;;;5.20;;
5608;SDS011;2826;51.354;9.588;2023-03-13T07:00:34;7.07;;;4.40;;
5608;SDS011;2826;51.354;9.588;2023-03-13T07:03:01;11.93;;;4.10;;
5608;SDS011;2826;51.354;9.588;2023-03-13T07:05:28;9.07;;;4.80;;
5608;SDS011;2826;51.354;9.588;2023-03-13T07:07:56;11.30;;;4.00;;
5608;SDS011;2826;51.354;9.588;2023-03-13T07:10:22;16.57;;;5.10;;
5608;SDS011;2826;51.354;9.588;2023-03-13T07:12:49;15.67;;;6.33;;
5608;SDS011;2826;51.354;9.588;2023-03-13T07:15:16;8.27;;;4.57;;
5608;SDS011;2826;51.354;9.588;2023-03-13T07:17:43;13.57;;;5.17;;
5608;SDS011;2826;51.354;9.588;2023-03-13T07:20:10;8.63;;;4.23;;
5608;SDS011;2826;51.354;9.588;2023-03-13T07:22:38;8.43;;;4.40;;
5608;SDS011;2826;51.354;9.588;2023-03-13T07:25:05;9.20;;;4.60;;
5608;SDS011;2826;51.354;9.588;2023-03-13T07:27:33;10.40;;;5.20;;
5608;SDS011;2826;51.354;9.588;2023-03-13T07:30:00;10.97;;;4.70;;
5608;SDS011;2826;51.354;9.588;2023-03-13T07:32:30;7.17;;;3.20;;
5608;SDS011;2826;51.354;9.588;2023-03-13T07:34:57;14.20;;;5.37;;
5608;SDS011;2826;51.354;9.588;2023-03-13T07:37:24;11.53;;;5.07;;
5608;SDS011;2826;51.354;9.588;2023-03-13T07:39:52;11.23;;;5.20;;
5608;SDS011;2826;51.354;9.588;2023-03-13T07:42:18;13.57;;;5.40;;
5608;SDS011;2826;51.354;9.588;2023-03-13T07:44:45;4.33;;;3.30;;
5608;SDS011;2826;51.354;9.588;2023-03-13T07:47:12;10.23;;;4.97;;
5608;SDS011;2826;51.354;9.588;2023-03-13T07:49:38;12.30;;;4.93;;
5608;SDS011;2826;51.354;9.588;2023-03-13T07:52:08;7.63;;;4.53;;
5608;SDS011;2826;51.354;9.588;2023-03-13T07:54:34;10.47;;;5.13;;
5608;SDS011;2826;51.354;9.588;2023-03-13T07:57:02;7.30;;;4.60;;
5608;SDS011;2826;51.354;9.588;2023-03-13T07:59:29;6.20;;;3.87;;
5608;SDS011;2826;51.354;9.588;2023-03-13T08:01:56;7.93;;;4.60;;
5608;SDS011;2826;51.354;9.588;2023-03-13T08:04:22;9.03;;;5.30;;
5608;SDS011;2826;51.354;9.588;2023-03-13T08:06:49;12.70;;;5.40;;
5608;SDS011;2826;51.354;9.588;2023-03-13T08:09:16;9.33;;;5.40;;
5608;SDS011;2826;51.354;9.588;2023-03-13T08:11:43;16.33;;;6.40;;
5608;SDS011;2826;51.354;9.588;2023-03-13T08:14:11;8.47;;;5.40;;
5608;SDS011;2826;51.354;9.588;2023-03-13T08:16:38;13.20;;;5.40;;
5608;SDS011;2826;51.354;9.588;2023-03-13T08:19:04;10.07;;;5.00;;
5608;SDS011;2826;51.354;9.588;2023-03-13T08:21:32;11.90;;;5.63;;
5608;SDS011;2826;51.354;9.588;2023-03-13T08:24:00;5.60;;;3.90;;
5608;SDS011;2826;51.354;9.588;2023-03-13T08:26:30;11.47;;;5.00;;
5608;SDS011;2826;51.354;9.588;2023-03-13T08:28:58;9.43;;;4.87;;
5608;SDS011;2826;51.354;9.588;2023-03-13T08:31:27;8.10;;;4.50;;
5608;SDS011;2826;51.354;9.588;2023-03-13T08:33:55;11.83;;;4.57;;
5608;SDS011;2826;51.354;9.588;2023-03-13T08:36:23;9.33;;;4.00;;
5608;SDS011;2826;51.354;9.588;2023-03-13T08:38:51;7.73;;;4.80;;
5608;SDS011;2826;51.354;9.588;2023-03-13T08:41:19;8.17;;;4.53;;
5608;SDS011;2826;51.354;9.588;2023-03-13T08:43:47;7.20;;;5.10;;
5608;SDS011;2826;51.354;9.588;2023-03-13T08:46:15;8.83;;;5.07;;
5608;SDS011;2826;51.354;9.588;2023-03-13T08:48:43;8.37;;;5.40;;
5608;SDS011;2826;51.354;9.588;2023-03-13T08:51:10;12.10;;;4.90;;
5608;SDS011;2826;51.354;9.588;2023-03-13T08:53:40;10.60;;;5.23;;
5608;SDS011;2826;51.354;9.588;2023-03-13T08:56:08;9.40;;;5.07;;
5608;SDS011;2826;51.354;9.588;2023-03-13T08:58:35;10.13;;;5.80;;
5608;SDS011;2826;51.354;9.588;2023-03-13T09:01:03;6.83;;;4.80;;
5608;SDS011;2826;51.354;9.588;2023-03-13T09:03:31;9.07;;;4.80;;
5608;SDS011;2826;51.354;9.588;2023-03-13T09:05:59;16.73;;;5.13;;
5608;SDS011;2826;51.354;9.588;2023-03-13T09:08:27;6.90;;;4.30;;
5608;SDS011;2826;51.354;9.588;2023-03-13T09:10:55;8.80;;;4.50;;
5608;SDS011;2826;51.354;9.588;2023-03-13T09:13:22;9.93;;;6.07;;
5608;SDS011;2826;51.354;9.588;2023-03-13T09:15:52;8.73;;;5.20;;
5608;SDS011;2826;51.354;9.588;2023-03-13T09:18:19;7.53;;;5.10;;
5608;SDS011;2826;51.354;9.588;2023-03-13T09:20:46;7.17;;;4.03;;
5608;SDS011;2826;51.354;9.588;2023-03-13T09:23:14;5.77;;;4.73;;
5608;SDS011;2826;51.354;9.588;2023-03-13T09:25:41;5.47;;;4.27;;
5608;SDS011;2826;51.354;9.588;2023-03-13T09:28:08;7.33;;;4.20;;
5608;SDS011;2826;51.354;9.588;2023-03-13T09:30:34;5.30;;;3.77;;
5608;SDS011;2826;51.354;9.588;2023-03-13T09:33:00;5.47;;;3.77;;
5608;SDS011;2826;51.354;9.588;2023-03-13T09:35:27;5.67;;;4.13;;
5608;SDS011;2826;51.354;9.588;2023-03-13T09:37:54;3.17;;;2.87;;
5608;SDS011;2826;51.354;9.588;2023-03-13T09:40:22;3.30;;;3.00;;
5608;SDS011;2826;51.354;9.588;2023-03-13T09:42:52;3.63;;;3.33;;
5608;SDS011;2826;51.354;9.588;2023-03-13T09:45:23;3.40;;;3.10;;
5608;SDS011;2826;51.354;9.588;2023-03-13T09:47:59;5.60;;;3.17;;
5608;SDS011;2826;51.354;9.588;2023-03-13T09:50:31;4.10;;;2.53;;
5608;SDS011;2826;51.354;9.588;2023-03-13T09:53:01;3.63;;;2.43;;
5608;SDS011;2826;51.354;9.588;2023-03-13T09:55:33;2.30;;;2.07;;
5608;SDS011;2826;51.354;9.588;2023-03-13T09:58:03;2.80;;;2.30;;
5608;SDS011;2826;51.354;9.588;2023-03-13T10:00:37;4.67;;;2.60;;
5608;SDS011;2826;51.354;9.588;2023-03-13T10:03:06;3.53;;;2.50;;
5608;SDS011;2826;51.354;9.588;2023-03-13T10:05:42;3.20;;;2.53;;
5608;SDS011;2826;51.354;9.588;2023-03-13T10:08:14;4.33;;;3.00;;
5608;SDS011;2826;51.354;9.588;2023-03-13T10:10:45;2.93;;;2.23;;
5608;SDS011;2826;51.354;9.588;2023-03-13T10:13:19;6.37;;;2.70;;
5608;SDS011;2826;51.354;9.588;2023-03-13T10:15:53;4.67;;;3.20;;
5608;SDS011;2826;51.354;9.588;2023-03-13T10:18:22;6.47;;;2.80;;
5608;SDS011;2826;51.354;9.588;2023-03-13T10:20:50;5.90;;;2.70;;
5608;SDS011;2826;51.354;9.588;2023-03-13T10:23:19;3.80;;;2.30;;
5608;SDS011;2826;51.354;9.588;2023-03-13T10:25:52;4.63;;;2.90;;
5608;SDS011;2826;51.354;9.588;2023-03-13T10:28:19;5.70;;;2.80;;
5608;SDS011;2826;51.354;9.588;2023-03-13T10:30:47;6.50;;;3.17;;
5608;SDS011;2826;51.354;9.588;2023-03-13T10:33:23;3.37;;;2.60;;
5608;SDS011;2826;51.354;9.588;2023-03-13T10:36:05;3.70;;;2.60;;
5608;SDS011;2826;51.354;9.588;2023-03-13T10:38:34;4.10;;;2.90;;
5608;SDS011;2826;51.354;9.588;2023-03-13T10:41:18;3.90;;;2.33;;
5608;SDS011;2826;51.354;9.588;2023-03-13T10:43:51;2.23;;;1.83;;
5608;SDS011;2826;51.354;9.588;2023-03-13T10:46:23;3.20;;;2.87;;
5608;SDS011;2826;51.354;9.588;2023-03-13T10:48:52;5.80;;;3.53;;
5608;SDS011;2826;51.354;9.588;2023-03-13T10:51:20;3.40;;;2.80;;
5608;SDS011;2826;51.354;9.588;2023-03-13T10:53:48;3.73;;;3.17;;
5608;SDS011;2826;51.354;9.588;2023-03-13T10:56:18;6.00;;;2.70;;
5608;SDS011;2826;51.354;9.588;2023-03-13T10:58:51;4.80;;;2.70;;
5608;SDS011;2826;51.354;9.588;2023-03-13T11:01:20;7.63;;;2.97;;
5608;SDS011;2826;51.354;9.588;2023-03-13T11:03:49;3.07;;;2.70;;
5608;SDS011;2826;51.354;9.588;2023-03-13T11:06:25;4.33;;;2.63;;
5608;SDS011;2826;51.354;9.588;2023-03-13T11:09:03;4.63;;;2.90;;
5608;SDS011;2826;51.354;9.588;2023-03-13T11:11:43;3.77;;;2.70;;
5608;SDS011;2826;51.354;9.588;2023-03-13T11:14:15;4.13;;;2.60;;
5608;SDS011;2826;51.354;9.588;2023-03-13T11:16:47;4.13;;;3.30;;
5608;SDS011;2826;51.354;9.588;2023-03-13T11:25:01;3.30;;;2.50;;
5608;SDS011;2826;51.354;9.588;2023-03-13T11:27:37;6.57;;;3.07;;
5608;SDS011;2826;51.354;9.588;2023-03-13T11:30:15;3.70;;;2.50;;
5608;SDS011;2826;51.354;9.588;2023-03-13T11:32:50;3.03;;;2.77;;
5608;SDS011;2826;51.354;9.588;2023-03-13T11:35:21;5.93;;;3.10;;
5608;SDS011;2826;51.354;9.588;2023-03-13T11:38:03;5.37;;;3.37;;
5608;SDS011;2826;51.354;9.588;2023-03-13T11:40:35;3.20;;;2.80;;
5608;SDS011;2826;51.354;9.588;2023-03-13T11:43:09;6.40;;;2.60;;
5608;SDS011;2826;51.354;9.588;2023-03-13T11:45:59;4.47;;;2.80;;
5608;SDS011;2826;51.354;9.588;2023-03-13T11:48:41;6.30;;;2.67;;
5608;SDS011;2826;51.354;9.588;2023-03-13T11:51:22;5.57;;;2.50;;
5608;SDS011;2826;51.354;9.588;2023-03-13T11:54:00;2.47;;;2.27;;
5608;SDS011;2826;51.354;9.588;2023-03-13T11:56:36;5.27;;;2.70;;
5608;SDS011;2826;51.354;9.588;2023-03-13T11:59:22;3.27;;;2.40;;
5608;SDS011;2826;51.354;9.588;2023-03-13T12:01:58;3.20;;;2.23;;
5608;SDS011;2826;51.354;9.588;2023-03-13T12:04:29;6.63;;;2.50;;
5608;SDS011;2826;51.354;9.588;2023-03-13T12:07:04;5.53;;;2.70;;
5608;SDS011;2826;51.354;9.588;2023-03-13T12:09:36;5.33;;;2.63;;
5608;SDS011;2826;51.354;9.588;2023-03-13T12:12:10;4.60;;;2.33;;
5608;SDS011;2826;51.354;9.588;2023-03-13T12:14:45;2.53;;;1.87;;
5608;SDS011;2826;51.354;9.588;2023-03-13T12:17:20;3.13;;;2.33;;
5608;SDS011;2826;51.354;9.588;2023-03-13T12:19:51;4.93;;;2.20;;
5608;SDS011;2826;51.354;9.588;2023-03-13T12:22:25;6.60;;;2.20;;
5608;SDS011;2826;51.354;9.588;2023-03-13T12:24:57;2.90;;;1.87;;
5608;SDS011;2826;51.354;9.588;2023-03-13T12:27:28;3.00;;;2.57;;
5608;SDS011;2826;51.354;9.588;2023-03-13T12:30:00;6.83;;;2.40;;
5608;SDS011;2826;51.354;9.588;2023-03-13T12:32:32;2.77;;;1.90;;
5608;SDS011;2826;51.354;9.588;2023-03-13T12:35:06;7.87;;;2.73;;
5608;SDS011;2826;51.354;9.588;2023-03-13T12:37:43;8.13;;;2.70;;
5608;SDS011;2826;51.354;9.588;2023-03-13T12:40:18;2.70;;;2.17;;
5608;SDS011;2826;51.354;9.588;2023-03-13T12:42:54;2.47;;;2.03;;
5608;SDS011;2826;51.354;9.588;2023-03-13T12:45:24;4.20;;;2.27;;
5608;SDS011;2826;51.354;9.588;2023-03-13T12:50:57;4.20;;;2.20;;
5608;SDS011;2826;51.354;9.588;2023-03-13T12:53:40;1.80;;;1.70;;
5608;SDS011;2826;51.354;9.588;2023-03-13T12:56:40;3.20;;;2.17;;
5608;SDS011;2826;51.354;9.588;2023-03-13T12:59:20;5.60;;;3.00;;
5608;SDS011;2826;51.354;9.588;2023-03-13T13:01:51;5.30;;;2.47;;
5608;SDS011;2826;51.354;9.588;2023-03-13T13:04:20;2.80;;;2.27;;
5608;SDS011;2826;51.354;9.588;2023-03-13T13:06:49;2.63;;;1.97;;
5608;SDS011;2826;51.354;9.588;2023-03-13T13:09:21;4.40;;;1.90;;
5608;SDS011;2826;51.354;9.588;2023-03-13T13:11:50;1.30;;;1.20;;
5608;SDS011;2826;51.354;9.588;2023-03-13T13:20:33;3.17;;;1.70;;
5608;SDS011;2826;51.354;9.588;2023-03-13T13:32:35;1.97;;;1.80;;
5608;SDS011;2826;51.354;9.588;2023-03-13T13:35:05;2.20;;;1.90;;
5608;SDS011;2826;51.354;9.588;2023-03-13T13:37:46;1.80;;;1.70;;
5608;SDS011;2826;51.354;9.588;2023-03-13T13:40:17;4.70;;;1.73;;
5608;SDS011;2826;51.354;9.588;2023-03-13T13:42:47;1.80;;;1.70;;
5608;SDS011;2826;51.354;9.588;2023-03-13T13:45:20;2.23;;;2.03;;
5608;SDS011;2826;51.354;9.588;2023-03-13T13:54:01;2.47;;;2.27;;
5608;SDS011;2826;51.354;9.588;2023-03-13T13:56:33;5.47;;;2.60;;
5608;SDS011;2826;51.354;9.588;2023-03-13T13:59:05;2.40;;;2.20;;
5608;SDS011;2826;51.354;9.588;2023-03-13T14:01:49;3.60;;;2.43;;
5608;SDS011;2826;51.354;9.588;2023-03-13T14:04:38;5.60;;;2.93;;
5608;SDS011;2826;51.354;9.588;2023-03-13T14:07:10;3.67;;;2.50;;
5608;SDS011;2826;51.354;9.588;2023-03-13T14:09:46;4.57;;;2.87;;
5608;SDS011;2826;51.354;9.588;2023-03-13T14:12:24;3.90;;;2.80;;
5608;SDS011;2826;51.354;9.588;2023-03-13T14:15:05;4.30;;;2.53;;
5608;SDS011;2826;51.354;9.588;2023-03-13T14:17:36;2.50;;;2.30;;
5608;SDS011;2826;51.354;9.588;2023-03-13T14:20:04;4.90;;;2.73;;
5608;SDS011;2826;51.354;9.588;2023-03-13T14:22:44;3.23;;;2.60;;
5608;SDS011;2826;51.354;9.588;2023-03-13T14:25:14;3.33;;;2.53;;
5608;SDS011;2826;51.354;9.588;2023-03-13T14:27:44;3.77;;;2.87;;
5608;SDS011;2826;51.354;9.588;2023-03-13T14:30:13;3.27;;;2.10;;
5608;SDS011;2826;51.354;9.588;2023-03-13T14:32:42;2.87;;;2.63;;
5608;SDS011;2826;51.354;9.588;2023-03-13T14:35:10;3.27;;;2.97;;
5608;SDS011;2826;51.354;9.588;2023-03-13T14:37:40;7.23;;;2.63;;
5608;SDS011;2826;51.354;9.588;2023-03-13T14:40:08;4.33;;;2.80;;
5608;SDS011;2826;51.354;9.588;2023-03-13T14:42:46;5.67;;;2.83;;
5608;SDS011;2826;51.354;9.588;2023-03-13T14:45:14;2.93;;;2.73;;
5608;SDS011;2826;51.354;9.588;2023-03-13T14:47:48;3.50;;;2.90;;
5608;SDS011;2826;51.354;9.588;2023-03-13T14:50:15;5.63;;;3.27;;
5608;SDS011;2826;51.354;9.588;2023-03-13T14:52:43;4.93;;;4.13;;
5608;SDS011;2826;51.354;9.588;2023-03-13T14:55:30;7.80;;;5.20;;
5608;SDS011;2826;51.354;9.588;2023-03-13T14:58:01;5.53;;;4.10;;
5608;SDS011;2826;51.354;9.588;2023-03-13T15:00:31;12.60;;;7.47;;
5608;SDS011;2826;51.354;9.588;2023-03-13T15:03:20;5.30;;;4.40;;
5608;SDS011;2826;51.354;9.588;2023-03-13T15:06:04;5.70;;;4.27;;
5608;SDS011;2826;51.354;9.588;2023-03-13T15:08:43;7.97;;;4.90;;
5608;SDS011;2826;51.354;9.588;2023-03-13T15:11:21;9.33;;;5.13;;
5608;SDS011;2826;51.354;9.588;2023-03-13T15:13:53;8.50;;;5.50;;
5608;SDS011;2826;51.354;9.588;2023-03-13T15:16:20;9.63;;;5.10;;
5608;SDS011;2826;51.354;9.588;2023-03-13T15:18:48;6.77;;;4.10;;
5608;SDS011;2826;51.354;9.588;2023-03-13T15:21:18;9.30;;;4.70;;
5608;SDS011;2826;51.354;9.588;2023-03-13T15:23:49;7.60;;;5.00;;
5608;SDS011;2826;51.354;9.588;2023-03-13T15:26:17;7.60;;;5.20;;
5608;SDS011;2826;51.354;9.588;2023-03-13T15:28:44;7.50;;;3.90;;
5608;SDS011;2826;51.354;9.588;2023-03-13T15:31:12;7.70;;;4.47;;
5608;SDS011;2826;51.354;9.588;2023-03-13T15:33:39;5.57;;;4.30;;
5608;SDS011;2826;51.354;9.588;2023-03-13T15:36:07;5.97;;;4.90;;
5608;SDS011;2826;51.354;9.588;2023-03-13T15:38:34;7.13;;;4.70;;
5608;SDS011;2826;51.354;9.588;2023-03-13T15:41:01;8.07;;;4.20;;
5608;SDS011;2826;51.354;9.588;2023-03-13T15:43:28;7.47;;;4.03;;
5608;SDS011;2826;51.354;9.588;2023-03-13T15:45:55;9.67;;;4.77;;
5608;SDS011;2826;51.354;9.588;2023-03-13T15:48:23;7.03;;;4.50;;
5608;SDS011;2826;51.354;9.588;2023-03-13T15:50:52;6.03;;;4.30;;
5608;SDS011;2826;51.354;9.588;2023-03-13T15:53:21;4.57;;;4.17;;
5608;SDS011;2826;51.354;9.588;2023-03-13T15:55:49;5.10;;;4.13;;
5608;SDS011;2826;51.354;9.588;2023-03-13T15:58:17;6.37;;;3.83;;
5608;SDS011;2826;51.354;9.588;2023-03-13T16:00:44;4.43;;;4.03;;
5608;SDS011;2826;51.354;9.588;2023-03-13T16:03:13;10.00;;;4.50;;
5608;SDS011;2826;51.354;9.588;2023-03-13T16:05:43;7.70;;;4.50;;
5608;SDS011;2826;51.354;9.588;2023-03-13T16:08:11;6.13;;;4.37;;
5608;SDS011;2826;51.354;9.588;2023-03-13T16:10:39;7.87;;;5.57;;